Time;durP1;ratioP1;P1;durP2;ratioP2;P2;SDS_P1;SDS_P2;PMS_P1;PMS_P2;Temp;Humidity;BMP_temperature;BMP_pressure;BME280_temperature;BME280_humidity;BME280_pressure;Samples;Min_cycle;Max_cycle;Signal;HPM_P1;HPM_P2
2021/07/10 00:02:05;;;;;;;28.30;19.17;;;;;;;;;;5070733;28;20117;-85
2021/07/10 00:04:36;;;;;;;31.02;18.05;;;;;;;;;;5053932;28;20029;-85
2021/07/10 00:07:05;;;;;;;31.20;18.63;;;;;;;;;;5053034;28;20109;-86
2021/07/10 00:09:37;;;;;;;34.28;20.38;;;;;;;;;;5071679;28;20045;-85
2021/07/10 00:12:04;;;;;;;30.45;17.73;;;;;;;;;;5076062;28;20053;-84
2021/07/10 00:14:30;;;;;;;26.85;18.77;;;;;;;;;;5076284;28;20041;-85
2021/07/10 00:17:06;;;;;;;28.08;18.40;;;;;;;;;;5068965;28;20048;-85
2021/07/10 00:19:34;;;;;;;28.33;18.67;;;;;;;;;;5067719;28;20049;-86
2021/07/10 00:22:02;;;;;;;31.65;19.13;;;;;;;;;;5068889;28;20065;-86
2021/07/10 00:24:50;;;;;;;32.20;19.10;;;;;;;;;;5051003;28;20112;-86
2021/07/10 00:27:16;;;;;;;31.83;18.48;;;;;;;;;;5052460;28;20056;-86
2021/07/10 00:29:47;;;;;;;31.42;19.75;;;;;;;;;;5051928;28;20045;-85
2021/07/10 00:32:14;;;;;;;34.90;21.58;;;;;;;;;;5070093;28;20049;-85
2021/07/10 00:34:57;;;;;;;34.83;20.63;;;;;;;;;;5070722;28;20052;-85
2021/07/10 00:37:23;;;;;;;30.88;18.88;;;;;;;;;;5052263;28;20049;-85
2021/07/10 00:39:50;;;;;;;32.17;19.40;;;;;;;;;;5069504;28;20079;-84
2021/07/10 00:42:26;;;;;;;32.65;20.42;;;;;;;;;;5067670;28;20052;-85
2021/07/10 00:44:53;;;;;;;35.45;20.15;;;;;;;;;;5050542;28;20056;-84
2021/07/10 00:47:19;;;;;;;33.72;19.50;;;;;;;;;;5051660;28;20052;-85
2021/07/10 00:49:46;;;;;;;31.55;19.60;;;;;;;;;;5068445;28;20048;-86
2021/07/10 00:52:16;;;;;;;30.73;19.25;;;;;;;;;;5067582;28;20049;-86
2021/07/10 00:54:42;;;;;;;36.85;20.73;;;;;;;;;;5068051;28;20052;-86
2021/07/10 00:57:12;;;;;;;34.65;19.73;;;;;;;;;;5068466;28;20061;-86
2021/07/10 00:59:54;;;;;;;30.63;19.83;;;;;;;;;;5067563;28;20117;-85
2021/07/10 01:02:23;;;;;;;32.33;21.65;;;;;;;;;;5068488;28;20053;-86
2021/07/10 01:04:50;;;;;;;35.88;20.73;;;;;;;;;;5070483;28;20055;-85
2021/07/10 01:07:17;;;;;;;31.10;19.00;;;;;;;;;;5080500;28;20114;-85
2021/07/10 01:09:56;;;;;;;31.38;19.73;;;;;;;;;;5060585;28;20048;-85
2021/07/10 01:12:23;;;;;;;35.80;20.80;;;;;;;;;;5062860;28;20056;-85
2021/07/10 01:14:49;;;;;;;37.88;20.20;;;;;;;;;;5080046;28;20055;-85
2021/07/10 01:17:15;;;;;;;33.30;19.58;;;;;;;;;;5062373;28;20113;-85
2021/07/10 01:20:02;;;;;;;31.02;19.42;;;;;;;;;;5064112;28;20052;-85
2021/07/10 01:22:29;;;;;;;33.88;20.25;;;;;;;;;;5063617;28;20598;-85
2021/07/10 01:24:55;;;;;;;38.47;20.40;;;;;;;;;;5080782;28;20044;-85
2021/07/10 01:27:22;;;;;;;35.65;21.13;;;;;;;;;;5071196;28;20048;-85
2021/07/10 01:29:50;;;;;;;30.80;19.17;;;;;;;;;;5089874;28;20244;-86
2021/07/10 01:32:17;;;;;;;36.15;21.73;;;;;;;;;;5088180;28;20045;-85
2021/07/10 01:34:48;;;;;;;35.38;21.42;;;;;;;;;;5062845;28;20057;-85
2021/07/10 01:37:15;;;;;;;41.13;21.77;;;;;;;;;;5048692;28;20095;-85
2021/07/10 01:39:45;;;;;;;33.60;21.90;;;;;;;;;;5049449;28;20071;-85
2021/07/10 01:42:11;;;;;;;32.78;20.85;;;;;;;;;;5047122;28;20041;-85
2021/07/10 01:44:39;;;;;;;35.00;20.27;;;;;;;;;;5041993;28;20057;-85
2021/07/10 01:47:05;;;;;;;35.75;20.48;;;;;;;;;;5023448;28;20049;-86
2021/07/10 01:49:36;;;;;;;33.00;19.83;;;;;;;;;;5024249;28;20302;-85
2021/07/10 01:52:02;;;;;;;35.47;21.77;;;;;;;;;;5040319;28;20060;-85
2021/07/10 01:54:29;;;;;;;39.10;22.85;;;;;;;;;;5040307;28;20059;-85
2021/07/10 01:56:56;;;;;;;38.90;21.58;;;;;;;;;;5038760;28;20384;-85
2021/07/10 01:59:25;;;;;;;39.10;22.63;;;;;;;;;;5020494;28;20061;-85
2021/07/10 02:01:52;;;;;;;41.13;21.98;;;;;;;;;;5023497;28;20294;-84
2021/07/10 02:04:21;;;;;;;38.38;21.58;;;;;;;;;;5023557;28;20057;-85
2021/07/10 02:06:48;;;;;;;39.50;21.58;;;;;;;;;;5021975;28;20065;-84
2021/07/10 02:09:24;;;;;;;38.53;23.25;;;;;;;;;;5040989;28;20049;-85
2021/07/10 02:11:51;;;;;;;46.03;23.85;;;;;;;;;;5024494;28;20069;-85
2021/07/10 02:14:18;;;;;;;39.88;24.10;;;;;;;;;;5030151;28;20050;-85
2021/07/10 02:16:51;;;;;;;40.97;23.13;;;;;;;;;;5030141;28;20049;-85
2021/07/10 02:19:18;;;;;;;35.58;21.05;;;;;;;;;;5032415;28;20060;-85
2021/07/10 02:21:45;;;;;;;35.50;22.33;;;;;;;;;;5035541;28;20068;-85
2021/07/10 02:24:11;;;;;;;39.15;23.42;;;;;;;;;;5053411;28;20050;-85
2021/07/10 02:26:38;;;;;;;44.55;23.95;;;;;;;;;;5032109;28;20066;-85
2021/07/10 02:29:05;;;;;;;44.08;24.17;;;;;;;;;;5033153;28;20050;-85
2021/07/10 02:31:32;;;;;;;37.75;23.52;;;;;;;;;;5027955;28;20057;-84
2021/07/10 02:34:00;;;;;;;47.55;24.48;;;;;;;;;;5020079;28;20054;-85
2021/07/10 02:36:26;;;;;;;43.25;24.65;;;;;;;;;;5055985;28;20455;-85
2021/07/10 02:38:53;;;;;;;46.80;25.23;;;;;;;;;;5060264;28;20057;-85
2021/07/10 02:41:19;;;;;;;48.42;24.73;;;;;;;;;;5060693;28;20110;-85
2021/07/10 02:43:50;;;;;;;49.80;25.25;;;;;;;;;;5059502;28;20057;-85
2021/07/10 02:46:17;;;;;;;42.15;24.35;;;;;;;;;;5060634;28;20126;-85
2021/07/10 02:48:44;;;;;;;44.42;24.00;;;;;;;;;;5062700;28;20232;-85
2021/07/10 02:51:15;;;;;;;46.25;25.50;;;;;;;;;;5061703;28;20055;-85
2021/07/10 02:53:42;;;;;;;47.53;25.80;;;;;;;;;;5059088;28;20045;-85
2021/07/10 02:56:08;;;;;;;43.58;24.05;;;;;;;;;;5061304;28;20053;-85
2021/07/10 02:58:35;;;;;;;46.40;25.60;;;;;;;;;;5061638;28;20053;-85
2021/07/10 03:01:07;;;;;;;43.75;23.48;;;;;;;;;;5060178;28;20087;-85
2021/07/10 03:03:34;;;;;;;47.38;25.10;;;;;;;;;;5057981;28;20111;-85
2021/07/10 03:06:11;;;;;;;49.05;25.60;;;;;;;;;;5058491;28;20110;-85
2021/07/10 03:08:39;;;;;;;44.15;25.20;;;;;;;;;;5058273;28;20269;-85
2021/07/10 03:11:09;;;;;;;47.45;25.83;;;;;;;;;;5056302;28;20049;-85
2021/07/10 03:13:36;;;;;;;43.85;24.92;;;;;;;;;;5052456;28;20592;-85
2021/07/10 03:16:04;;;;;;;40.83;23.75;;;;;;;;;;5024188;28;20065;-85
2021/07/10 03:18:40;;;;;;;43.00;23.75;;;;;;;;;;5036852;28;20057;-85
2021/07/10 03:21:07;;;;;;;49.00;25.65;;;;;;;;;;5037144;28;20069;-85
2021/07/10 03:23:34;;;;;;;42.75;24.05;;;;;;;;;;5037972;28;20115;-83
2021/07/10 03:26:04;;;;;;;36.10;22.15;;;;;;;;;;5040518;28;20099;-83
2021/07/10 03:28:31;;;;;;;44.55;24.40;;;;;;;;;;5040334;28;20100;-84
2021/07/10 03:30:58;;;;;;;43.25;23.65;;;;;;;;;;5027408;28;20096;-84
2021/07/10 03:33:25;;;;;;;43.58;23.27;;;;;;;;;;5022672;28;20054;-84
2021/07/10 03:35:51;;;;;;;45.55;23.67;;;;;;;;;;5034795;28;20497;-83
2021/07/10 03:38:21;;;;;;;43.35;23.42;;;;;;;;;;5029594;28;20166;-83
2021/07/10 03:40:48;;;;;;;46.50;23.88;;;;;;;;;;5035576;28;20033;-84
2021/07/10 03:43:15;;;;;;;42.55;23.35;;;;;;;;;;5044173;28;20038;-84
2021/07/10 03:45:44;;;;;;;40.10;23.00;;;;;;;;;;5028853;28;20453;-84
2021/07/10 03:48:11;;;;;;;39.42;22.38;;;;;;;;;;5024979;28;20167;-84
2021/07/10 03:50:37;;;;;;;41.42;23.58;;;;;;;;;;5027029;28;20116;-84
2021/07/10 03:53:04;;;;;;;42.45;24.15;;;;;;;;;;5030230;28;20524;-84
2021/07/10 03:55:31;;;;;;;45.35;24.10;;;;;;;;;;5028731;28;20056;-84
2021/07/10 03:57:58;;;;;;;46.83;24.90;;;;;;;;;;5026480;28;20053;-86
2021/07/10 04:00:24;;;;;;;50.92;26.05;;;;;;;;;;5030143;28;20057;-84
2021/07/10 04:02:51;;;;;;;44.97;25.27;;;;;;;;;;5057401;28;20053;-86
2021/07/10 04:05:19;;;;;;;47.25;25.80;;;;;;;;;;5046921;28;20077;-84
2021/07/10 04:07:45;;;;;;;52.90;28.10;;;;;;;;;;5026073;28;20042;-83
2021/07/10 04:10:12;;;;;;;49.90;26.75;;;;;;;;;;5022142;28;20046;-85
2021/07/10 04:12:43;;;;;;;46.33;27.50;;;;;;;;;;5022021;28;20046;-85
2021/07/10 04:15:11;;;;;;;46.30;26.92;;;;;;;;;;5020980;28;20050;-85
2021/07/10 04:17:37;;;;;;;34.00;22.55;;;;;;;;;;5022042;28;20221;-85
2021/07/10 04:20:05;;;;;;;34.42;21.83;;;;;;;;;;5036569;28;20085;-85
2021/07/10 04:22:32;;;;;;;30.33;20.80;;;;;;;;;;5021570;28;20341;-85
2021/07/10 04:25:03;;;;;;;30.08;20.65;;;;;;;;;;5020318;28;20509;-85
2021/07/10 04:27:34;;;;;;;30.65;20.75;;;;;;;;;;5022218;28;20377;-84
2021/07/10 04:30:03;;;;;;;29.27;19.50;;;;;;;;;;5022269;28;20052;-85
2021/07/10 04:32:36;;;;;;;30.38;19.02;;;;;;;;;;5020023;28;20057;-84
2021/07/10 04:35:04;;;;;;;21.95;17.00;;;;;;;;;;5020342;28;20460;-84
2021/07/10 04:37:31;;;;;;;24.10;16.73;;;;;;;;;;5019751;28;20084;-84
2021/07/10 04:39:57;;;;;;;25.00;17.63;;;;;;;;;;5018892;28;20618;-84
2021/07/10 04:42:28;;;;;;;24.10;16.33;;;;;;;;;;5020205;28;20093;-85
2021/07/10 04:44:57;;;;;;;21.88;15.57;;;;;;;;;;5021796;28;20085;-84
2021/07/10 04:47:23;;;;;;;21.70;16.33;;;;;;;;;;5021296;28;20062;-84
2021/07/10 04:49:59;;;;;;;24.83;16.42;;;;;;;;;;5027030;28;20075;-84
2021/07/10 04:52:26;;;;;;;21.20;15.80;;;;;;;;;;5061453;28;20356;-83
2021/07/10 04:54:52;;;;;;;20.58;16.83;;;;;;;;;;5061548;28;20368;-84
2021/07/10 04:57:19;;;;;;;21.27;16.60;;;;;;;;;;5061622;28;20105;-84
2021/07/10 04:59:47;;;;;;;23.48;17.23;;;;;;;;;;5062057;28;20049;-83
2021/07/10 05:02:23;;;;;;;20.08;16.23;;;;;;;;;;5061674;28;20085;-85
2021/07/10 05:04:53;;;;;;;21.15;14.65;;;;;;;;;;5057539;28;20187;-84
2021/07/10 05:07:19;;;;;;;21.85;16.10;;;;;;;;;;5042649;28;20065;-85
2021/07/10 05:09:46;;;;;;;19.50;14.32;;;;;;;;;;5050987;28;20088;-85
2021/07/10 05:12:14;;;;;;;20.95;14.80;;;;;;;;;;5054173;28;20060;-85
2021/07/10 05:14:41;;;;;;;19.10;14.50;;;;;;;;;;5039488;28;20071;-85
2021/07/10 05:17:07;;;;;;;23.17;14.27;;;;;;;;;;5031765;28;20061;-85
2021/07/10 05:19:37;;;;;;;17.88;14.00;;;;;;;;;;5041604;28;20079;-85
2021/07/10 05:22:04;;;;;;;17.40;12.35;;;;;;;;;;5051143;28;20154;-85
2021/07/10 05:24:30;;;;;;;19.92;14.05;;;;;;;;;;5034390;28;20113;-85
2021/07/10 05:26:57;;;;;;;15.77;12.15;;;;;;;;;;5039214;28;20061;-84
2021/07/10 05:29:24;;;;;;;17.55;11.25;;;;;;;;;;5043979;28;20055;-84
2021/07/10 05:31:51;;;;;;;20.30;12.50;;;;;;;;;;5025590;28;20088;-84
2021/07/10 05:34:17;;;;;;;13.70;10.55;;;;;;;;;;5043251;28;20109;-86
2021/07/10 05:36:44;;;;;;;23.42;11.18;;;;;;;;;;5061640;28;20339;-85
2021/07/10 05:39:11;;;;;;;17.85;11.07;;;;;;;;;;5042766;28;20083;-85
2021/07/10 05:41:37;;;;;;;13.32;9.65;;;;;;;;;;5040401;28;20053;-85
2021/07/10 05:44:13;;;;;;;15.00;9.00;;;;;;;;;;5038577;28;20057;-85
2021/07/10 05:46:40;;;;;;;17.65;9.35;;;;;;;;;;5039502;28;20413;-85
2021/07/10 05:49:06;;;;;;;10.60;8.30;;;;;;;;;;5020723;28;20049;-85
2021/07/10 05:51:33;;;;;;;12.05;8.68;;;;;;;;;;5036591;28;20053;-85
2021/07/10 05:53:59;;;;;;;10.38;8.27;;;;;;;;;;5019914;28;20403;-85
2021/07/10 05:56:26;;;;;;;10.27;7.47;;;;;;;;;;5037915;28;20060;-85
2021/07/10 05:58:52;;;;;;;8.05;7.22;;;;;;;;;;5039468;28;20049;-85
2021/07/10 06:01:19;;;;;;;9.93;7.50;;;;;;;;;;5020582;28;20068;-85
2021/07/10 06:03:46;;;;;;;8.40;6.95;;;;;;;;;;5036806;28;20197;-84
2021/07/10 06:06:14;;;;;;;9.77;7.28;;;;;;;;;;5036504;28;20056;-84
2021/07/10 06:08:44;;;;;;;12.43;8.00;;;;;;;;;;5041273;28;20069;-84
2021/07/10 06:11:11;;;;;;;8.45;7.03;;;;;;;;;;5040674;28;20131;-85
2021/07/10 06:13:38;;;;;;;7.68;6.32;;;;;;;;;;5039758;28;20067;-84
2021/07/10 06:16:04;;;;;;;10.13;6.40;;;;;;;;;;5057962;28;20051;-84
2021/07/10 06:18:31;;;;;;;10.70;7.15;;;;;;;;;;5039970;28;20067;-84
2021/07/10 06:20:58;;;;;;;7.43;6.28;;;;;;;;;;5058315;28;20108;-85
2021/07/10 06:23:24;;;;;;;9.40;5.90;;;;;;;;;;5041596;28;20056;-86
2021/07/10 06:25:54;;;;;;;8.15;6.30;;;;;;;;;;5040732;28;20434;-86
2021/07/10 06:28:20;;;;;;;6.93;6.05;;;;;;;;;;5039369;28;20056;-86
2021/07/10 06:30:47;;;;;;;6.07;5.40;;;;;;;;;;5039875;28;20053;-86
2021/07/10 06:33:13;;;;;;;8.02;5.82;;;;;;;;;;5048561;28;20044;-86
2021/07/10 06:35:40;;;;;;;8.68;6.78;;;;;;;;;;5060146;28;20282;-84
2021/07/10 06:38:07;;;;;;;7.07;5.68;;;;;;;;;;5059873;28;20401;-84
2021/07/10 06:40:33;;;;;;;6.20;4.55;;;;;;;;;;5044303;28;20389;-85
2021/07/10 06:43:00;;;;;;;4.10;3.60;;;;;;;;;;5036653;28;20049;-85
2021/07/10 06:45:30;;;;;;;10.30;4.40;;;;;;;;;;5018984;28;20057;-85
2021/07/10 06:48:01;;;;;;;6.35;4.72;;;;;;;;;;5024868;28;20045;-85
2021/07/10 06:50:29;;;;;;;6.53;4.70;;;;;;;;;;5021898;28;20080;-85
2021/07/10 06:52:56;;;;;;;4.80;4.30;;;;;;;;;;5021918;28;20060;-84
2021/07/10 06:55:22;;;;;;;5.15;3.97;;;;;;;;;;5022498;28;20115;-84
2021/07/10 06:57:51;;;;;;;5.03;4.30;;;;;;;;;;5023145;28;20057;-84
2021/07/10 07:00:19;;;;;;;5.90;4.50;;;;;;;;;;5036757;28;20065;-84
2021/07/10 07:02:46;;;;;;;5.00;4.47;;;;;;;;;;5018942;28;20052;-85
2021/07/10 07:05:13;;;;;;;6.90;4.38;;;;;;;;;;5028919;28;20076;-85
2021/07/10 07:07:40;;;;;;;5.05;3.67;;;;;;;;;;5051165;28;20104;-84
2021/07/10 07:10:13;;;;;;;5.35;4.07;;;;;;;;;;5055900;28;20234;-84
2021/07/10 07:12:40;;;;;;;6.53;4.53;;;;;;;;;;5047739;28;20049;-85
2021/07/10 07:15:08;;;;;;;4.55;3.88;;;;;;;;;;5061030;28;20056;-84
2021/07/10 07:17:35;;;;;;;5.22;3.88;;;;;;;;;;5059714;28;20122;-85
2021/07/10 07:20:03;;;;;;;5.38;4.22;;;;;;;;;;5042010;28;20209;-84
2021/07/10 07:22:30;;;;;;;3.88;3.33;;;;;;;;;;5058316;28;20066;-84
2021/07/10 07:24:59;;;;;;;7.93;4.43;;;;;;;;;;5062252;28;20063;-84
2021/07/10 07:27:26;;;;;;;4.78;3.70;;;;;;;;;;5064511;28;20133;-85
2021/07/10 07:29:52;;;;;;;4.80;3.55;;;;;;;;;;5080680;28;20176;-85
2021/07/10 07:32:19;;;;;;;4.95;3.70;;;;;;;;;;5064061;28;20053;-84
2021/07/10 07:34:49;;;;;;;5.95;3.17;;;;;;;;;;5030706;28;20045;-84
2021/07/10 07:37:16;;;;;;;5.03;4.20;;;;;;;;;;5022669;28;20210;-85
2021/07/10 07:39:46;;;;;;;5.18;4.40;;;;;;;;;;5040964;28;20050;-85
2021/07/10 07:42:16;;;;;;;4.07;3.58;;;;;;;;;;5021207;28;20054;-85
2021/07/10 07:44:43;;;;;;;4.68;3.70;;;;;;;;;;5037986;28;20152;-84
2021/07/10 07:47:17;;;;;;;6.03;3.92;;;;;;;;;;5021886;28;20068;-85
2021/07/10 07:49:48;;;;;;;5.47;4.82;;;;;;;;;;5022680;28;20605;-85
2021/07/10 07:52:14;;;;;;;5.82;4.82;;;;;;;;;;5039107;28;20052;-86
2021/07/10 07:54:41;;;;;;;6.53;5.60;;;;;;;;;;5037111;28;20107;-84
2021/07/10 07:57:08;;;;;;;6.80;5.75;;;;;;;;;;5021717;28;20053;-84
2021/07/10 07:59:35;;;;;;;8.55;6.57;;;;;;;;;;5039849;28;20053;-85
2021/07/10 08:02:09;;;;;;;7.75;6.95;;;;;;;;;;5021459;28;20499;-84
2021/07/10 08:04:36;;;;;;;7.88;5.60;;;;;;;;;;5022716;28;20053;-84
2021/07/10 08:07:03;;;;;;;7.00;5.93;;;;;;;;;;5041169;28;20049;-84
2021/07/10 08:09:29;;;;;;;11.38;5.88;;;;;;;;;;5039592;28;20416;-85
2021/07/10 08:11:57;;;;;;;18.15;8.43;;;;;;;;;;5057904;28;20055;-84
2021/07/10 08:14:23;;;;;;;16.58;7.88;;;;;;;;;;5058576;28;20116;-82
2021/07/10 08:16:50;;;;;;;9.57;6.80;;;;;;;;;;5039891;28;20044;-85
2021/07/10 08:19:18;;;;;;;10.07;6.90;;;;;;;;;;5040093;28;20041;-85
2021/07/10 08:21:47;;;;;;;8.25;7.35;;;;;;;;;;5040604;28;20161;-85
2021/07/10 08:24:14;;;;;;;10.07;6.93;;;;;;;;;;5056072;28;20433;-85
2021/07/10 08:26:40;;;;;;;9.82;6.93;;;;;;;;;;5057217;28;20059;-85
2021/07/10 08:29:07;;;;;;;8.55;6.85;;;;;;;;;;5058106;28;20041;-85
2021/07/10 08:31:41;;;;;;;7.72;6.22;;;;;;;;;;5038978;28;20049;-85
2021/07/10 08:34:09;;;;;;;10.07;6.65;;;;;;;;;;5040521;28;20053;-85
2021/07/10 08:36:38;;;;;;;8.23;5.95;;;;;;;;;;5055605;28;20049;-85
2021/07/10 08:39:08;;;;;;;7.78;5.47;;;;;;;;;;5045988;28;20053;-85
2021/07/10 08:41:37;;;;;;;5.63;4.35;;;;;;;;;;5037421;28;20115;-85
2021/07/10 08:44:04;;;;;;;6.85;5.55;;;;;;;;;;5019502;28;20049;-85
2021/07/10 08:46:31;;;;;;;7.97;6.55;;;;;;;;;;5036149;28;20054;-85
2021/07/10 08:48:57;;;;;;;9.18;6.40;;;;;;;;;;5020719;28;20057;-85
2021/07/10 08:51:24;;;;;;;9.07;6.53;;;;;;;;;;5037520;28;20044;-85
2021/07/10 08:53:51;;;;;;;7.35;5.97;;;;;;;;;;5035760;28;20255;-85
2021/07/10 08:56:17;;;;;;;7.47;5.72;;;;;;;;;;5021479;28;20251;-85
2021/07/10 08:58:44;;;;;;;8.73;6.60;;;;;;;;;;5037920;28;20710;-85
2021/07/10 09:01:10;;;;;;;11.70;6.32;;;;;;;;;;5016682;28;20049;-86
2021/07/10 09:03:38;;;;;;;7.53;5.95;;;;;;;;;;5017397;28;20053;-85
2021/07/10 09:06:11;;;;;;;8.02;5.43;;;;;;;;;;5029884;28;20064;-85
2021/07/10 09:08:43;;;;;;;7.22;5.53;;;;;;;;;;5038331;28;20045;-85
2021/07/10 09:11:10;;;;;;;9.32;6.43;;;;;;;;;;5035117;28;20385;-85
2021/07/10 09:13:44;;;;;;;7.18;5.22;;;;;;;;;;5051333;28;20312;-85
2021/07/10 09:16:12;;;;;;;7.60;5.40;;;;;;;;;;5035126;28;20099;-85
2021/07/10 09:18:46;;;;;;;6.82;4.70;;;;;;;;;;5035146;28;20059;-85
2021/07/10 09:21:33;;;;;;;8.70;5.45;;;;;;;;;;5034151;28;20056;-84
2021/07/10 09:24:05;;;;;;;7.85;5.95;;;;;;;;;;5035264;28;20048;-84
2021/07/10 09:26:32;;;;;;;9.43;5.75;;;;;;;;;;5031091;28;20333;-84
2021/07/10 09:29:02;;;;;;;7.82;5.75;;;;;;;;;;5030811;28;20550;-84
2021/07/10 09:31:31;;;;;;;10.30;6.20;;;;;;;;;;5029483;28;20046;-84
2021/07/10 09:34:04;;;;;;;8.70;5.63;;;;;;;;;;5031438;28;20119;-85
2021/07/10 09:36:53;;;;;;;9.18;5.40;;;;;;;;;;5050710;28;20059;-85
2021/07/10 09:39:20;;;;;;;7.30;5.05;;;;;;;;;;5055056;28;20063;-84
2021/07/10 09:41:47;;;;;;;8.70;5.28;;;;;;;;;;5050415;28;20158;-84
2021/07/10 09:44:16;;;;;;;9.45;5.85;;;;;;;;;;5051795;28;20071;-84
2021/07/10 09:46:43;;;;;;;8.18;4.97;;;;;;;;;;5014293;28;20113;-83
2021/07/10 09:49:19;;;;;;;7.28;6.00;;;;;;;;;;5012366;28;20046;-84
2021/07/10 09:51:46;;;;;;;8.20;5.45;;;;;;;;;;5013480;28;20137;-84
2021/07/10 09:54:13;;;;;;;6.80;5.65;;;;;;;;;;5013222;28;20057;-84
2021/07/10 09:56:58;;;;;;;7.22;6.10;;;;;;;;;;5015387;28;20080;-84
2021/07/10 09:59:25;;;;;;;6.72;5.22;;;;;;;;;;5013491;28;20428;-84
2021/07/10 10:01:52;;;;;;;7.25;5.85;;;;;;;;;;5011979;28;20252;-84
2021/07/10 10:04:26;;;;;;;10.38;6.05;;;;;;;;;;5012733;28;20194;-85
2021/07/10 10:06:54;;;;;;;6.30;5.28;;;;;;;;;;5013000;28;20049;-84
2021/07/10 10:09:28;;;;;;;11.25;6.25;;;;;;;;;;5012025;28;20046;-84
2021/07/10 10:11:57;;;;;;;7.57;5.63;;;;;;;;;;5010792;28;20077;-85
2021/07/10 10:14:25;;;;;;;7.68;5.63;;;;;;;;;;5011066;28;20406;-85
2021/07/10 10:16:52;;;;;;;7.68;5.00;;;;;;;;;;5014359;28;20049;-85
2021/07/10 10:19:20;;;;;;;9.52;5.03;;;;;;;;;;5010803;28;20076;-85
2021/07/10 10:21:48;;;;;;;13.20;6.05;;;;;;;;;;5011512;28;20085;-85
2021/07/10 10:24:15;;;;;;;8.48;6.25;;;;;;;;;;5011846;28;20084;-85
2021/07/10 10:26:42;;;;;;;7.30;5.80;;;;;;;;;;5023774;28;20329;-85
2021/07/10 10:29:09;;;;;;;11.80;7.07;;;;;;;;;;5022302;28;20071;-85
2021/07/10 10:31:37;;;;;;;6.90;5.25;;;;;;;;;;5032046;28;20101;-85
2021/07/10 10:34:06;;;;;;;8.95;5.97;;;;;;;;;;5046891;28;20099;-84
2021/07/10 10:36:34;;;;;;;8.40;6.47;;;;;;;;;;5034902;28;20045;-84
2021/07/10 10:39:02;;;;;;;9.10;5.95;;;;;;;;;;5034953;28;20098;-84
2021/07/10 10:41:29;;;;;;;8.32;6.00;;;;;;;;;;5053818;28;20060;-84
2021/07/10 10:43:56;;;;;;;8.38;5.47;;;;;;;;;;5024874;28;20065;-86
2021/07/10 10:46:23;;;;;;;6.10;4.85;;;;;;;;;;5036124;28;20064;-84
2021/07/10 10:48:51;;;;;;;6.45;4.80;;;;;;;;;;5021160;28;20152;-84
2021/07/10 10:51:26;;;;;;;7.30;5.38;;;;;;;;;;5021812;28;20279;-83
2021/07/10 10:53:53;;;;;;;;;;;;;;;;;;5036689;28;20064;-84
2021/07/10 10:56:39;;;;;;;8.50;5.20;;;;;;;;;;5058671;28;20066;-85
2021/07/10 10:59:25;;;;;;;11.82;6.53;;;;;;;;;;5058448;28;20244;-84
2021/07/10 11:01:56;;;;;;;8.85;6.55;;;;;;;;;;5018177;28;20042;-84
2021/07/10 11:04:41;;;;;;;9.60;7.13;;;;;;;;;;5022906;28;20084;-84
2021/07/10 11:07:27;;;;;;;7.13;5.57;;;;;;;;;;5035578;28;20045;-84
2021/07/10 11:10:03;;;;;;;8.50;6.47;;;;;;;;;;5020222;28;20185;-84
2021/07/10 11:12:48;;;;;;;11.90;6.20;;;;;;;;;;5018745;28;20050;-84
2021/07/10 11:15:24;;;;;;;10.55;7.30;;;;;;;;;;5024355;28;20148;-85
2021/07/10 11:18:04;;;;;;;9.60;7.63;;;;;;;;;;5031929;28;20053;-85
2021/07/10 11:20:50;;;;;;;11.27;6.75;;;;;;;;;;5056438;28;20486;-85
2021/07/10 11:23:23;;;;;;;7.80;6.47;;;;;;;;;;5033969;28;20045;-85
2021/07/10 11:25:49;;;;;;;11.88;6.95;;;;;;;;;;5051060;28;20171;-84
2021/07/10 11:28:17;;;;;;;10.10;6.90;;;;;;;;;;5038135;28;20325;-85
2021/07/10 11:30:46;;;;;;;11.07;7.22;;;;;;;;;;5038837;28;20053;-86
2021/07/10 11:33:15;;;;;;;10.45;6.03;;;;;;;;;;5040582;28;20408;-84
2021/07/10 11:35:46;;;;;;;9.73;6.88;;;;;;;;;;5057789;28;20053;-85
2021/07/10 11:38:49;;;;;;;11.48;6.63;;;;;;;;;;5038740;28;20049;-85
2021/07/10 11:41:27;;;;;;;8.30;6.03;;;;;;;;;;4943405;29;20055;-85
2021/07/10 11:44:10;;;;;;;9.48;7.30;;;;;;;;;;5031953;28;20053;-84
2021/07/10 11:46:55;;;;;;;9.02;6.25;;;;;;;;;;5037448;28;20164;-84
2021/07/10 11:49:41;;;;;;;10.98;6.82;;;;;;;;;;5037260;28;20053;-84
2021/07/10 11:52:18;;;;;;;7.55;6.28;;;;;;;;;;5037694;28;20063;-85
2021/07/10 11:54:46;;;;;;;10.13;7.40;;;;;;;;;;5021824;28;20041;-85
2021/07/10 11:57:14;;;;;;;9.50;7.22;;;;;;;;;;5020943;28;20049;-84
2021/07/10 11:59:41;;;;;;;9.15;6.97;;;;;;;;;;5042169;28;20037;-85
2021/07/10 12:02:16;;;;;;;10.63;7.32;;;;;;;;;;5026529;28;20072;-84
2021/07/10 12:05:03;;;;;;;10.90;7.57;;;;;;;;;;5046711;28;20134;-85
2021/07/10 12:07:32;;;;;;;9.30;7.00;;;;;;;;;;5039128;28;20052;-85
2021/07/10 12:09:59;;;;;;;10.63;6.60;;;;;;;;;;5071718;28;20324;-85
2021/07/10 12:12:30;;;;;;;9.95;6.78;;;;;;;;;;5056239;28;20044;-85
2021/07/10 12:14:57;;;;;;;9.98;6.82;;;;;;;;;;5055797;28;20255;-85
2021/07/10 12:17:33;;;;;;;9.48;7.55;;;;;;;;;;5034443;28;20122;-85
2021/07/10 12:20:06;;;;;;;8.80;6.07;;;;;;;;;;5030233;28;20107;-84
2021/07/10 12:22:33;;;;;;;9.80;7.53;;;;;;;;;;5017756;28;20057;-84
2021/07/10 12:25:03;;;;;;;13.75;8.50;;;;;;;;;;5014751;28;20076;-84
2021/07/10 12:27:31;;;;;;;9.93;6.85;;;;;;;;;;5014563;28;20053;-84
2021/07/10 12:30:11;;;;;;;10.23;6.65;;;;;;;;;;5034235;28;20045;-84
2021/07/10 12:32:39;;;;;;;8.18;6.53;;;;;;;;;;5075679;28;20127;-84
2021/07/10 12:35:07;;;;;;;7.95;5.95;;;;;;;;;;5085769;28;20033;-84
2021/07/10 12:37:35;;;;;;;8.40;6.35;;;;;;;;;;5068361;28;20044;-84
2021/07/10 12:40:08;;;;;;;9.77;6.75;;;;;;;;;;5084681;28;20259;-85
2021/07/10 12:42:36;;;;;;;10.18;6.80;;;;;;;;;;5068266;28;20062;-85
2021/07/10 12:45:22;;;;;;;10.15;7.40;;;;;;;;;;5086634;28;20074;-85
2021/07/10 12:47:57;;;;;;;9.95;7.80;;;;;;;;;;5084535;28;20066;-85
2021/07/10 12:50:24;;;;;;;9.02;7.15;;;;;;;;;;5064665;28;20347;-85
2021/07/10 12:52:57;;;;;;;8.32;6.03;;;;;;;;;;5066324;28;20084;-86
2021/07/10 12:55:28;;;;;;;8.52;6.43;;;;;;;;;;5035757;28;20041;-84
2021/07/10 12:57:55;;;;;;;8.18;5.47;;;;;;;;;;5019699;28;20116;-85
2021/07/10 13:00:33;;;;;;;8.60;6.13;;;;;;;;;;5019194;28;20166;-85
2021/07/10 13:03:02;;;;;;;8.75;6.30;;;;;;;;;;5018449;28;20081;-85
2021/07/10 13:05:36;;;;;;;9.75;7.05;;;;;;;;;;5027637;28;20088;-85
2021/07/10 13:08:06;;;;;;;8.93;6.97;;;;;;;;;;5056060;28;20057;-84
2021/07/10 13:10:38;;;;;;;8.82;6.82;;;;;;;;;;5039745;28;20110;-84
2021/07/10 13:13:29;;;;;;;11.70;6.88;;;;;;;;;;5056928;28;20053;-85
2021/07/10 13:15:57;;;;;;;7.18;6.30;;;;;;;;;;5038241;28;20155;-85
2021/07/10 13:18:23;;;;;;;9.65;7.18;;;;;;;;;;5044163;28;20352;-85
2021/07/10 13:20:55;;;;;;;10.98;6.55;;;;;;;;;;5036214;28;20150;-84
2021/07/10 13:23:26;;;;;;;8.30;6.40;;;;;;;;;;5019120;28;20056;-84
2021/07/10 13:25:53;;;;;;;9.27;6.70;;;;;;;;;;5016783;28;20508;-84
2021/07/10 13:28:29;;;;;;;7.65;6.15;;;;;;;;;;5018335;28;20049;-86
2021/07/10 13:31:10;;;;;;;11.23;6.30;;;;;;;;;;5018595;28;20103;-86
2021/07/10 13:33:37;;;;;;;11.35;7.38;;;;;;;;;;5032325;28;20080;-86
2021/07/10 13:36:08;;;;;;;7.75;5.70;;;;;;;;;;5037911;28;20102;-86
2021/07/10 13:38:38;;;;;;;9.55;7.35;;;;;;;;;;5029956;28;20118;-83
2021/07/10 13:41:12;;;;;;;8.60;6.38;;;;;;;;;;5032289;28;20076;-85
2021/07/10 13:43:39;;;;;;;11.50;7.40;;;;;;;;;;5019534;28;20088;-84
2021/07/10 13:46:12;;;;;;;8.82;6.93;;;;;;;;;;5016705;28;20057;-86
2021/07/10 13:48:42;;;;;;;8.95;6.10;;;;;;;;;;5017321;28;20294;-84
2021/07/10 13:51:09;;;;;;;8.13;6.63;;;;;;;;;;5040448;28;20045;-84
2021/07/10 13:53:39;;;;;;;10.73;7.03;;;;;;;;;;5051425;28;20045;-85
2021/07/10 13:56:16;;;;;;;8.07;5.80;;;;;;;;;;5030740;28;20121;-86
2021/07/10 13:59:02;;;;;;;9.77;6.40;;;;;;;;;;5027383;28;20045;-85
2021/07/10 14:01:30;;;;;;;8.73;6.03;;;;;;;;;;5013970;28;20290;-85
2021/07/10 14:03:57;;;;;;;9.15;5.97;;;;;;;;;;5015050;28;20055;-85
2021/07/10 14:06:27;;;;;;;14.88;6.43;;;;;;;;;;5045275;28;20178;-85
2021/07/10 14:08:53;;;;;;;10.82;7.75;;;;;;;;;;5055247;28;20294;-85
2021/07/10 14:11:20;;;;;;;9.88;7.10;;;;;;;;;;5028033;28;20324;-86
2021/07/10 14:13:47;;;;;;;10.23;5.85;;;;;;;;;;5017438;28;20210;-85
2021/07/10 14:16:14;;;;;;;10.18;5.70;;;;;;;;;;5019458;28;20479;-85
2021/07/10 14:18:41;;;;;;;9.93;6.38;;;;;;;;;;5044316;28;20061;-85
2021/07/10 14:21:11;;;;;;;7.57;5.93;;;;;;;;;;5023801;28;20493;-85
2021/07/10 14:23:37;;;;;;;10.73;6.60;;;;;;;;;;5019903;28;20053;-85
2021/07/10 14:26:04;;;;;;;10.15;6.55;;;;;;;;;;5037507;28;20053;-85
2021/07/10 14:28:48;;;;;;;11.18;6.43;;;;;;;;;;5026582;28;20188;-85
2021/07/10 14:31:15;;;;;;;12.63;6.72;;;;;;;;;;5043220;28;20045;-85
2021/07/10 14:33:44;;;;;;;10.40;6.72;;;;;;;;;;5041438;28;20041;-86
2021/07/10 14:36:10;;;;;;;9.63;6.68;;;;;;;;;;5038480;28;20336;-85
2021/07/10 14:38:40;;;;;;;9.38;7.30;;;;;;;;;;5028360;28;20045;-85
2021/07/10 14:41:08;;;;;;;10.05;6.53;;;;;;;;;;5027983;28;20073;-85
2021/07/10 14:43:42;;;;;;;7.80;5.63;;;;;;;;;;5040047;28;20133;-85
2021/07/10 14:46:17;;;;;;;10.82;7.68;;;;;;;;;;5050872;28;20095;-85